sensor_id;sensor_type;location;lat;lon;timestamp;P1;durP1;ratioP1;P2;durP2;ratioP2
15931;SDS011;8065;49.520;11.284;2023-09-30T00:00:03;25.10;;;12.10;;
15931;SDS011;8065;49.520;11.284;2023-09-30T00:02:33;29.83;;;13.57;;
15931;SDS011;8065;49.520;11.284;2023-09-30T00:05:02;23.57;;;11.27;;
15931;SDS011;8065;49.520;11.284;2023-09-30T00:07:31;24.70;;;12.17;;
15931;SDS011;8065;49.520;11.284;2023-09-30T00:09:59;24.60;;;12.63;;
15931;SDS011;8065;49.520;11.284;2023-09-30T00:12:28;19.43;;;10.23;;
15931;SDS011;8065;49.520;11.284;2023-09-30T00:14:56;26.00;;;11.50;;
15931;SDS011;8065;49.520;11.284;2023-09-30T00:17:27;24.30;;;11.73;;
15931;SDS011;8065;49.520;11.284;2023-09-30T00:19:55;23.40;;;11.37;;
15931;SDS011;8065;49.520;11.284;2023-09-30T00:22:24;22.53;;;11.90;;
15931;SDS011;8065;49.520;11.284;2023-09-30T00:24:53;19.93;;;10.70;;
15931;SDS011;8065;49.520;11.284;2023-09-30T00:27:21;25.03;;;10.73;;
15931;SDS011;8065;49.520;11.284;2023-09-30T00:29:50;19.53;;;10.93;;
15931;SDS011;8065;49.520;11.284;2023-09-30T00:32:18;23.73;;;10.83;;
15931;SDS011;8065;49.520;11.284;2023-09-30T00:34:49;19.40;;;10.00;;
15931;SDS011;8065;49.520;11.284;2023-09-30T00:37:18;20.43;;;10.47;;
15931;SDS011;8065;49.520;11.284;2023-09-30T00:39:47;19.23;;;9.93;;
15931;SDS011;8065;49.520;11.284;2023-09-30T00:42:15;18.33;;;9.50;;
15931;SDS011;8065;49.520;11.284;2023-09-30T00:44:45;20.63;;;10.37;;
15931;SDS011;8065;49.520;11.284;2023-09-30T00:47:13;19.50;;;9.70;;
15931;SDS011;8065;49.520;11.284;2023-09-30T00:49:42;20.17;;;9.73;;
15931;SDS011;8065;49.520;11.284;2023-09-30T00:52:13;17.27;;;8.80;;
15931;SDS011;8065;49.520;11.284;2023-09-30T00:54:42;15.73;;;7.20;;
15931;SDS011;8065;49.520;11.284;2023-09-30T00:57:11;11.60;;;6.73;;
15931;SDS011;8065;49.520;11.284;2023-09-30T00:59:40;12.73;;;6.37;;
15931;SDS011;8065;49.520;11.284;2023-09-30T01:02:08;11.90;;;5.87;;
15931;SDS011;8065;49.520;11.284;2023-09-30T01:04:36;8.13;;;4.70;;
15931;SDS011;8065;49.520;11.284;2023-09-30T01:07:05;12.20;;;5.10;;
15931;SDS011;8065;49.520;11.284;2023-09-30T01:09:36;10.13;;;5.53;;
15931;SDS011;8065;49.520;11.284;2023-09-30T01:12:05;9.63;;;4.83;;
15931;SDS011;8065;49.520;11.284;2023-09-30T01:14:34;10.50;;;4.73;;
15931;SDS011;8065;49.520;11.284;2023-09-30T01:17:05;8.90;;;4.77;;
15931;SDS011;8065;49.520;11.284;2023-09-30T01:19:38;8.00;;;4.57;;
15931;SDS011;8065;49.520;11.284;2023-09-30T01:22:10;10.37;;;4.83;;
15931;SDS011;8065;49.520;11.284;2023-09-30T01:24:39;10.10;;;4.50;;
15931;SDS011;8065;49.520;11.284;2023-09-30T01:27:08;9.43;;;4.60;;
15931;SDS011;8065;49.520;11.284;2023-09-30T01:29:38;9.40;;;4.33;;
15931;SDS011;8065;49.520;11.284;2023-09-30T01:32:06;8.90;;;4.07;;
15931;SDS011;8065;49.520;11.284;2023-09-30T01:34:35;8.60;;;4.63;;
15931;SDS011;8065;49.520;11.284;2023-09-30T01:37:03;7.83;;;4.00;;
15931;SDS011;8065;49.520;11.284;2023-09-30T01:39:35;8.07;;;3.67;;
15931;SDS011;8065;49.520;11.284;2023-09-30T01:42:04;6.83;;;3.97;;
15931;SDS011;8065;49.520;11.284;2023-09-30T01:44:32;7.87;;;4.13;;
15931;SDS011;8065;49.520;11.284;2023-09-30T01:47:00;7.73;;;4.23;;
15931;SDS011;8065;49.520;11.284;2023-09-30T01:49:29;7.93;;;3.97;;
15931;SDS011;8065;49.520;11.284;2023-09-30T01:51:57;8.63;;;4.20;;
15931;SDS011;8065;49.520;11.284;2023-09-30T01:54:25;8.07;;;4.17;;
15931;SDS011;8065;49.520;11.284;2023-09-30T01:56:56;7.70;;;4.20;;
15931;SDS011;8065;49.520;11.284;2023-09-30T01:59:25;7.73;;;4.17;;
15931;SDS011;8065;49.520;11.284;2023-09-30T02:01:53;10.73;;;3.90;;
15931;SDS011;8065;49.520;11.284;2023-09-30T02:04:22;6.73;;;3.77;;
15931;SDS011;8065;49.520;11.284;2023-09-30T02:06:50;6.93;;;3.57;;
15931;SDS011;8065;49.520;11.284;2023-09-30T02:09:18;7.53;;;4.17;;
15931;SDS011;8065;49.520;11.284;2023-09-30T02:11:46;7.07;;;3.80;;
15931;SDS011;8065;49.520;11.284;2023-09-30T02:14:17;8.13;;;3.87;;
15931;SDS011;8065;49.520;11.284;2023-09-30T02:16:46;8.50;;;4.10;;
15931;SDS011;8065;49.520;11.284;2023-09-30T02:19:14;6.17;;;3.57;;
15931;SDS011;8065;49.520;11.284;2023-09-30T02:21:42;5.60;;;3.43;;
15931;SDS011;8065;49.520;11.284;2023-09-30T02:24:10;6.87;;;3.40;;
15931;SDS011;8065;49.520;11.284;2023-09-30T02:26:39;6.33;;;3.57;;
15931;SDS011;8065;49.520;11.284;2023-09-30T02:29:08;5.57;;;3.33;;
15931;SDS011;8065;49.520;11.284;2023-09-30T02:31:39;6.87;;;3.47;;
15931;SDS011;8065;49.520;11.284;2023-09-30T02:34:07;6.83;;;3.83;;
15931;SDS011;8065;49.520;11.284;2023-09-30T02:36:36;7.00;;;3.70;;
15931;SDS011;8065;49.520;11.284;2023-09-30T02:39:04;5.90;;;3.30;;
15931;SDS011;8065;49.520;11.284;2023-09-30T02:41:33;6.50;;;3.70;;
15931;SDS011;8065;49.520;11.284;2023-09-30T02:44:02;6.70;;;3.43;;
15931;SDS011;8065;49.520;11.284;2023-09-30T02:46:31;6.43;;;3.50;;
15931;SDS011;8065;49.520;11.284;2023-09-30T02:49:03;5.80;;;3.30;;
15931;SDS011;8065;49.520;11.284;2023-09-30T02:51:31;5.20;;;3.00;;
15931;SDS011;8065;49.520;11.284;2023-09-30T02:53:59;6.93;;;3.53;;
15931;SDS011;8065;49.520;11.284;2023-09-30T02:56:28;5.07;;;3.47;;
15931;SDS011;8065;49.520;11.284;2023-09-30T02:58:56;4.83;;;3.10;;
15931;SDS011;8065;49.520;11.284;2023-09-30T03:01:24;5.87;;;3.03;;
15931;SDS011;8065;49.520;11.284;2023-09-30T03:03:53;7.00;;;3.30;;
15931;SDS011;8065;49.520;11.284;2023-09-30T03:06:24;5.60;;;3.20;;
15931;SDS011;8065;49.520;11.284;2023-09-30T03:08:52;5.10;;;3.00;;
15931;SDS011;8065;49.520;11.284;2023-09-30T03:11:20;7.13;;;3.57;;
15931;SDS011;8065;49.520;11.284;2023-09-30T03:13:49;5.00;;;3.30;;
15931;SDS011;8065;49.520;11.284;2023-09-30T03:16:17;4.57;;;2.60;;
15931;SDS011;8065;49.520;11.284;2023-09-30T03:18:45;6.20;;;3.47;;
15931;SDS011;8065;49.520;11.284;2023-09-30T03:21:14;7.27;;;3.60;;
15931;SDS011;8065;49.520;11.284;2023-09-30T03:23:45;4.90;;;2.93;;
15931;SDS011;8065;49.520;11.284;2023-09-30T03:26:13;5.17;;;2.97;;
15931;SDS011;8065;49.520;11.284;2023-09-30T03:28:42;4.50;;;3.10;;
15931;SDS011;8065;49.520;11.284;2023-09-30T03:31:11;5.93;;;3.10;;
15931;SDS011;8065;49.520;11.284;2023-09-30T03:33:39;4.53;;;3.37;;
15931;SDS011;8065;49.520;11.284;2023-09-30T03:36:08;4.43;;;3.10;;
15931;SDS011;8065;49.520;11.284;2023-09-30T03:38:37;4.40;;;3.17;;
15931;SDS011;8065;49.520;11.284;2023-09-30T03:41:09;3.03;;;2.70;;
15931;SDS011;8065;49.520;11.284;2023-09-30T03:43:38;5.47;;;3.23;;
15931;SDS011;8065;49.520;11.284;2023-09-30T03:46:06;4.43;;;2.90;;
15931;SDS011;8065;49.520;11.284;2023-09-30T03:48:34;7.73;;;3.47;;
15931;SDS011;8065;49.520;11.284;2023-09-30T03:51:08;7.70;;;3.57;;
15931;SDS011;8065;49.520;11.284;2023-09-30T03:56:09;4.97;;;3.33;;
15931;SDS011;8065;49.520;11.284;2023-09-30T03:58:38;6.37;;;3.27;;
15931;SDS011;8065;49.520;11.284;2023-09-30T04:01:07;6.00;;;3.70;;
15931;SDS011;8065;49.520;11.284;2023-09-30T04:03:36;5.70;;;3.10;;
15931;SDS011;8065;49.520;11.284;2023-09-30T04:06:04;6.93;;;3.23;;
15931;SDS011;8065;49.520;11.284;2023-09-30T04:08:34;4.30;;;2.80;;
15931;SDS011;8065;49.520;11.284;2023-09-30T04:11:03;5.13;;;2.90;;
15931;SDS011;8065;49.520;11.284;2023-09-30T04:13:34;4.50;;;2.57;;
15931;SDS011;8065;49.520;11.284;2023-09-30T04:16:03;4.93;;;2.87;;
15931;SDS011;8065;49.520;11.284;2023-09-30T04:18:31;3.60;;;2.50;;
15931;SDS011;8065;49.520;11.284;2023-09-30T04:20:59;4.20;;;2.50;;
15931;SDS011;8065;49.520;11.284;2023-09-30T04:23:29;3.50;;;2.37;;
15931;SDS011;8065;49.520;11.284;2023-09-30T04:25:58;2.77;;;2.00;;
15931;SDS011;8065;49.520;11.284;2023-09-30T04:28:26;3.47;;;2.13;;
15931;SDS011;8065;49.520;11.284;2023-09-30T04:30:58;3.93;;;2.20;;
15931;SDS011;8065;49.520;11.284;2023-09-30T04:33:27;2.27;;;1.70;;
15931;SDS011;8065;49.520;11.284;2023-09-30T04:35:56;3.10;;;2.10;;
15931;SDS011;8065;49.520;11.284;2023-09-30T04:38:24;3.03;;;1.87;;
15931;SDS011;8065;49.520;11.284;2023-09-30T04:40:52;2.80;;;2.07;;
15931;SDS011;8065;49.520;11.284;2023-09-30T04:43:23;3.20;;;2.00;;
15931;SDS011;8065;49.520;11.284;2023-09-30T04:45:54;2.90;;;1.80;;
15931;SDS011;8065;49.520;11.284;2023-09-30T04:48:25;2.30;;;1.70;;
15931;SDS011;8065;49.520;11.284;2023-09-30T04:50:54;3.97;;;1.90;;
15931;SDS011;8065;49.520;11.284;2023-09-30T04:53:22;2.73;;;1.57;;
15931;SDS011;8065;49.520;11.284;2023-09-30T04:55:51;1.90;;;1.37;;
15931;SDS011;8065;49.520;11.284;2023-09-30T04:58:19;2.33;;;1.40;;
15931;SDS011;8065;49.520;11.284;2023-09-30T05:00:49;1.70;;;1.60;;
15931;SDS011;8065;49.520;11.284;2023-09-30T05:03:17;2.53;;;1.80;;
15931;SDS011;8065;49.520;11.284;2023-09-30T05:05:48;2.80;;;1.70;;
15931;SDS011;8065;49.520;11.284;2023-09-30T05:08:18;5.20;;;2.27;;
15931;SDS011;8065;49.520;11.284;2023-09-30T05:10:46;6.70;;;2.50;;
15931;SDS011;8065;49.520;11.284;2023-09-30T05:13:14;4.77;;;2.93;;
15931;SDS011;8065;49.520;11.284;2023-09-30T05:15:43;3.00;;;2.27;;
15931;SDS011;8065;49.520;11.284;2023-09-30T05:18:11;3.40;;;2.33;;
15931;SDS011;8065;49.520;11.284;2023-09-30T05:20:40;3.53;;;2.20;;
15931;SDS011;8065;49.520;11.284;2023-09-30T05:23:11;4.57;;;2.40;;
15931;SDS011;8065;49.520;11.284;2023-09-30T05:25:39;4.77;;;2.80;;
15931;SDS011;8065;49.520;11.284;2023-09-30T05:28:08;4.37;;;2.53;;
15931;SDS011;8065;49.520;11.284;2023-09-30T05:30:38;4.30;;;2.33;;
15931;SDS011;8065;49.520;11.284;2023-09-30T05:33:08;4.37;;;2.37;;
15931;SDS011;8065;49.520;11.284;2023-09-30T05:35:39;6.80;;;2.83;;
15931;SDS011;8065;49.520;11.284;2023-09-30T05:38:08;4.30;;;2.60;;
15931;SDS011;8065;49.520;11.284;2023-09-30T05:40:39;5.50;;;2.70;;
15931;SDS011;8065;49.520;11.284;2023-09-30T05:43:07;4.67;;;2.73;;
15931;SDS011;8065;49.520;11.284;2023-09-30T05:45:39;4.77;;;2.63;;
15931;SDS011;8065;49.520;11.284;2023-09-30T05:48:14;5.43;;;2.77;;
15931;SDS011;8065;49.520;11.284;2023-09-30T05:50:43;4.17;;;2.53;;
15931;SDS011;8065;49.520;11.284;2023-09-30T05:53:15;4.77;;;2.57;;
15931;SDS011;8065;49.520;11.284;2023-09-30T05:55:43;4.17;;;2.57;;
15931;SDS011;8065;49.520;11.284;2023-09-30T05:58:12;4.13;;;2.47;;
15931;SDS011;8065;49.520;11.284;2023-09-30T06:00:41;4.90;;;2.53;;
15931;SDS011;8065;49.520;11.284;2023-09-30T06:03:10;4.93;;;2.40;;
15931;SDS011;8065;49.520;11.284;2023-09-30T06:05:39;4.50;;;2.60;;
15931;SDS011;8065;49.520;11.284;2023-09-30T06:08:08;4.83;;;2.90;;
15931;SDS011;8065;49.520;11.284;2023-09-30T06:10:42;5.23;;;2.87;;
15931;SDS011;8065;49.520;11.284;2023-09-30T06:13:11;3.90;;;2.33;;
15931;SDS011;8065;49.520;11.284;2023-09-30T06:15:41;4.33;;;2.57;;
15931;SDS011;8065;49.520;11.284;2023-09-30T06:18:11;4.60;;;2.67;;
15931;SDS011;8065;49.520;11.284;2023-09-30T06:20:40;3.93;;;2.43;;
15931;SDS011;8065;49.520;11.284;2023-09-30T06:23:08;4.43;;;2.57;;
15931;SDS011;8065;49.520;11.284;2023-09-30T06:25:37;3.87;;;2.60;;
15931;SDS011;8065;49.520;11.284;2023-09-30T06:28:08;5.97;;;3.23;;
15931;SDS011;8065;49.520;11.284;2023-09-30T06:30:39;4.63;;;3.00;;
15931;SDS011;8065;49.520;11.284;2023-09-30T06:33:10;7.03;;;2.60;;
15931;SDS011;8065;49.520;11.284;2023-09-30T06:35:40;4.40;;;2.60;;
15931;SDS011;8065;49.520;11.284;2023-09-30T06:38:15;2.57;;;2.30;;
15931;SDS011;8065;49.520;11.284;2023-09-30T06:40:44;3.77;;;2.33;;
15931;SDS011;8065;49.520;11.284;2023-09-30T06:43:15;5.50;;;2.60;;
15931;SDS011;8065;49.520;11.284;2023-09-30T06:45:44;5.07;;;2.70;;
15931;SDS011;8065;49.520;11.284;2023-09-30T06:48:13;5.67;;;2.60;;
15931;SDS011;8065;49.520;11.284;2023-09-30T06:50:45;4.47;;;2.63;;
15931;SDS011;8065;49.520;11.284;2023-09-30T06:53:14;6.23;;;2.40;;
15931;SDS011;8065;49.520;11.284;2023-09-30T06:55:42;4.07;;;2.83;;
15931;SDS011;8065;49.520;11.284;2023-09-30T06:58:11;5.03;;;2.80;;
15931;SDS011;8065;49.520;11.284;2023-09-30T07:00:46;4.60;;;2.67;;
15931;SDS011;8065;49.520;11.284;2023-09-30T07:03:17;4.27;;;2.40;;
15931;SDS011;8065;49.520;11.284;2023-09-30T07:05:46;4.93;;;2.50;;
15931;SDS011;8065;49.520;11.284;2023-09-30T07:08:16;4.00;;;2.40;;
15931;SDS011;8065;49.520;11.284;2023-09-30T07:10:46;4.50;;;2.37;;
15931;SDS011;8065;49.520;11.284;2023-09-30T07:13:17;4.37;;;2.27;;
15931;SDS011;8065;49.520;11.284;2023-09-30T07:15:48;4.20;;;2.40;;
15931;SDS011;8065;49.520;11.284;2023-09-30T07:18:17;5.13;;;2.80;;
15931;SDS011;8065;49.520;11.284;2023-09-30T07:20:45;4.23;;;2.43;;
15931;SDS011;8065;49.520;11.284;2023-09-30T07:23:13;6.23;;;2.80;;
15931;SDS011;8065;49.520;11.284;2023-09-30T07:25:42;3.57;;;2.63;;
15931;SDS011;8065;49.520;11.284;2023-09-30T07:28:10;6.03;;;2.73;;
15931;SDS011;8065;49.520;11.284;2023-09-30T07:30:38;4.97;;;2.50;;
15931;SDS011;8065;49.520;11.284;2023-09-30T07:33:10;4.70;;;2.50;;
15931;SDS011;8065;49.520;11.284;2023-09-30T07:35:38;3.97;;;2.60;;
15931;SDS011;8065;49.520;11.284;2023-09-30T07:38:07;3.67;;;2.50;;
15931;SDS011;8065;49.520;11.284;2023-09-30T07:40:35;4.70;;;2.50;;
15931;SDS011;8065;49.520;11.284;2023-09-30T07:43:03;5.97;;;2.67;;
15931;SDS011;8065;49.520;11.284;2023-09-30T07:45:32;3.50;;;2.80;;
15931;SDS011;8065;49.520;11.284;2023-09-30T07:48:00;4.90;;;2.30;;
15931;SDS011;8065;49.520;11.284;2023-09-30T07:50:32;4.90;;;2.77;;
15931;SDS011;8065;49.520;11.284;2023-09-30T07:53:02;4.93;;;2.53;;
15931;SDS011;8065;49.520;11.284;2023-09-30T07:55:30;5.23;;;2.73;;
15931;SDS011;8065;49.520;11.284;2023-09-30T07:57:58;4.30;;;2.20;;
15931;SDS011;8065;49.520;11.284;2023-09-30T08:00:28;3.47;;;2.13;;
15931;SDS011;8065;49.520;11.284;2023-09-30T08:02:58;4.47;;;2.63;;
15931;SDS011;8065;49.520;11.284;2023-09-30T08:05:28;4.13;;;2.50;;
15931;SDS011;8065;49.520;11.284;2023-09-30T08:07:59;3.97;;;2.47;;
15931;SDS011;8065;49.520;11.284;2023-09-30T08:10:27;3.77;;;2.23;;
15931;SDS011;8065;49.520;11.284;2023-09-30T08:12:57;4.90;;;2.37;;
15931;SDS011;8065;49.520;11.284;2023-09-30T08:15:27;4.83;;;2.30;;
15931;SDS011;8065;49.520;11.284;2023-09-30T08:17:55;4.77;;;2.50;;
15931;SDS011;8065;49.520;11.284;2023-09-30T08:20:24;6.13;;;2.40;;
15931;SDS011;8065;49.520;11.284;2023-09-30T08:22:53;4.20;;;2.30;;
15931;SDS011;8065;49.520;11.284;2023-09-30T08:25:23;3.13;;;2.10;;
15931;SDS011;8065;49.520;11.284;2023-09-30T08:27:52;5.17;;;2.40;;
15931;SDS011;8065;49.520;11.284;2023-09-30T08:30:20;4.40;;;2.20;;
15931;SDS011;8065;49.520;11.284;2023-09-30T08:32:49;5.27;;;2.50;;
15931;SDS011;8065;49.520;11.284;2023-09-30T08:35:17;5.93;;;2.60;;
15931;SDS011;8065;49.520;11.284;2023-09-30T08:37:45;4.13;;;2.87;;
15931;SDS011;8065;49.520;11.284;2023-09-30T08:40:14;4.30;;;3.07;;
15931;SDS011;8065;49.520;11.284;2023-09-30T08:42:51;4.10;;;2.77;;
15931;SDS011;8065;49.520;11.284;2023-09-30T08:45:20;5.60;;;3.37;;
15931;SDS011;8065;49.520;11.284;2023-09-30T08:47:48;7.27;;;4.13;;
15931;SDS011;8065;49.520;11.284;2023-09-30T08:50:18;5.93;;;3.97;;
15931;SDS011;8065;49.520;11.284;2023-09-30T08:52:47;4.50;;;3.50;;
15931;SDS011;8065;49.520;11.284;2023-09-30T08:55:17;4.10;;;2.93;;
15931;SDS011;8065;49.520;11.284;2023-09-30T08:57:46;5.17;;;3.17;;
15931;SDS011;8065;49.520;11.284;2023-09-30T09:00:19;6.77;;;3.23;;
15931;SDS011;8065;49.520;11.284;2023-09-30T09:02:48;5.63;;;3.50;;
15931;SDS011;8065;49.520;11.284;2023-09-30T09:05:17;5.47;;;3.20;;
15931;SDS011;8065;49.520;11.284;2023-09-30T09:07:46;4.23;;;3.10;;
15931;SDS011;8065;49.520;11.284;2023-09-30T09:10:15;5.10;;;3.27;;
15931;SDS011;8065;49.520;11.284;2023-09-30T09:12:43;5.67;;;3.60;;
15931;SDS011;8065;49.520;11.284;2023-09-30T09:15:26;5.77;;;3.37;;
15931;SDS011;8065;49.520;11.284;2023-09-30T09:17:56;4.63;;;3.20;;
15931;SDS011;8065;49.520;11.284;2023-09-30T09:20:25;6.13;;;3.07;;
15931;SDS011;8065;49.520;11.284;2023-09-30T09:22:54;5.00;;;3.37;;
15931;SDS011;8065;49.520;11.284;2023-09-30T09:25:25;4.83;;;3.07;;
15931;SDS011;8065;49.520;11.284;2023-09-30T09:27:53;3.57;;;2.80;;
15931;SDS011;8065;49.520;11.284;2023-09-30T09:30:25;6.17;;;3.00;;
15931;SDS011;8065;49.520;11.284;2023-09-30T09:32:55;4.77;;;3.17;;
15931;SDS011;8065;49.520;11.284;2023-09-30T09:35:27;6.00;;;2.73;;
15931;SDS011;8065;49.520;11.284;2023-09-30T09:37:58;4.10;;;2.90;;
15931;SDS011;8065;49.520;11.284;2023-09-30T09:40:27;4.03;;;2.97;;
15931;SDS011;8065;49.520;11.284;2023-09-30T09:42:57;4.23;;;2.80;;
15931;SDS011;8065;49.520;11.284;2023-09-30T09:45:32;5.30;;;2.83;;
15931;SDS011;8065;49.520;11.284;2023-09-30T09:48:01;3.73;;;2.53;;
15931;SDS011;8065;49.520;11.284;2023-09-30T09:50:32;4.17;;;2.43;;
15931;SDS011;8065;49.520;11.284;2023-09-30T09:53:01;4.67;;;2.80;;
15931;SDS011;8065;49.520;11.284;2023-09-30T09:55:32;4.80;;;2.80;;
15931;SDS011;8065;49.520;11.284;2023-09-30T10:00:28;4.30;;;2.23;;
15931;SDS011;8065;49.520;11.284;2023-09-30T10:03:02;6.70;;;2.40;;
15931;SDS011;8065;49.520;11.284;2023-09-30T10:05:30;3.57;;;2.17;;
15931;SDS011;8065;49.520;11.284;2023-09-30T10:08:00;5.27;;;2.27;;
15931;SDS011;8065;49.520;11.284;2023-09-30T10:10:31;5.33;;;2.30;;
15931;SDS011;8065;49.520;11.284;2023-09-30T10:13:04;4.13;;;2.47;;
15931;SDS011;8065;49.520;11.284;2023-09-30T10:15:36;3.43;;;2.50;;
15931;SDS011;8065;49.520;11.284;2023-09-30T10:18:10;4.07;;;2.50;;
15931;SDS011;8065;49.520;11.284;2023-09-30T10:20:40;4.90;;;2.47;;
15931;SDS011;8065;49.520;11.284;2023-09-30T10:26:15;3.67;;;2.50;;
15931;SDS011;8065;49.520;11.284;2023-09-30T10:28:45;4.97;;;2.63;;
15931;SDS011;8065;49.520;11.284;2023-09-30T10:31:15;5.50;;;2.70;;
15931;SDS011;8065;49.520;11.284;2023-09-30T10:36:46;2.93;;;2.23;;
15931;SDS011;8065;49.520;11.284;2023-09-30T10:39:19;6.13;;;2.23;;
15931;SDS011;8065;49.520;11.284;2023-09-30T10:53:50;3.80;;;2.20;;
15931;SDS011;8065;49.520;11.284;2023-09-30T10:56:21;2.97;;;1.83;;
15931;SDS011;8065;49.520;11.284;2023-09-30T10:58:53;3.23;;;1.90;;
15931;SDS011;8065;49.520;11.284;2023-09-30T11:01:21;2.10;;;1.80;;
15931;SDS011;8065;49.520;11.284;2023-09-30T11:03:58;4.07;;;1.90;;
15931;SDS011;8065;49.520;11.284;2023-09-30T11:06:28;3.27;;;1.83;;
15931;SDS011;8065;49.520;11.284;2023-09-30T11:09:00;3.37;;;2.00;;
15931;SDS011;8065;49.520;11.284;2023-09-30T11:11:35;5.40;;;2.23;;
15931;SDS011;8065;49.520;11.284;2023-09-30T11:14:16;5.23;;;1.97;;
15931;SDS011;8065;49.520;11.284;2023-09-30T11:16:46;4.50;;;2.20;;
15931;SDS011;8065;49.520;11.284;2023-09-30T11:19:15;3.90;;;2.33;;
15931;SDS011;8065;49.520;11.284;2023-09-30T11:21:46;4.93;;;2.33;;
15931;SDS011;8065;49.520;11.284;2023-09-30T11:24:18;4.20;;;2.23;;
15931;SDS011;8065;49.520;11.284;2023-09-30T11:26:47;3.67;;;2.10;;
15931;SDS011;8065;49.520;11.284;2023-09-30T11:29:21;3.60;;;2.20;;
15931;SDS011;8065;49.520;11.284;2023-09-30T11:31:50;6.60;;;2.20;;
15931;SDS011;8065;49.520;11.284;2023-09-30T11:34:18;2.50;;;2.00;;
15931;SDS011;8065;49.520;11.284;2023-09-30T11:36:48;3.50;;;2.30;;
15931;SDS011;8065;49.520;11.284;2023-09-30T11:39:26;4.37;;;2.53;;
15931;SDS011;8065;49.520;11.284;2023-09-30T11:41:56;3.30;;;2.17;;
15931;SDS011;8065;49.520;11.284;2023-09-30T11:44:26;4.53;;;2.47;;
15931;SDS011;8065;49.520;11.284;2023-09-30T11:46:56;4.17;;;2.53;;
15931;SDS011;8065;49.520;11.284;2023-09-30T11:49:29;5.20;;;2.43;;
15931;SDS011;8065;49.520;11.284;2023-09-30T11:52:00;3.13;;;2.07;;
15931;SDS011;8065;49.520;11.284;2023-09-30T11:54:33;7.57;;;2.80;;
15931;SDS011;8065;49.520;11.284;2023-09-30T11:57:04;4.03;;;2.17;;
15931;SDS011;8065;49.520;11.284;2023-09-30T11:59:34;3.13;;;2.47;;
15931;SDS011;8065;49.520;11.284;2023-09-30T12:02:04;4.13;;;2.67;;
15931;SDS011;8065;49.520;11.284;2023-09-30T12:04:34;4.40;;;2.50;;
15931;SDS011;8065;49.520;11.284;2023-09-30T12:07:02;3.70;;;2.60;;
15931;SDS011;8065;49.520;11.284;2023-09-30T12:09:34;4.63;;;2.87;;
15931;SDS011;8065;49.520;11.284;2023-09-30T12:12:04;3.63;;;2.50;;
15931;SDS011;8065;49.520;11.284;2023-09-30T12:14:35;4.03;;;2.77;;
15931;SDS011;8065;49.520;11.284;2023-09-30T12:17:03;5.63;;;2.70;;
15931;SDS011;8065;49.520;11.284;2023-09-30T12:19:31;4.80;;;2.33;;
15931;SDS011;8065;49.520;11.284;2023-09-30T12:22:01;4.70;;;2.43;;
15931;SDS011;8065;49.520;11.284;2023-09-30T12:24:29;5.57;;;2.80;;
15931;SDS011;8065;49.520;11.284;2023-09-30T12:27:00;4.33;;;2.50;;
15931;SDS011;8065;49.520;11.284;2023-09-30T12:29:29;3.60;;;2.60;;
15931;SDS011;8065;49.520;11.284;2023-09-30T12:31:58;4.37;;;2.40;;
15931;SDS011;8065;49.520;11.284;2023-09-30T12:34:26;4.00;;;2.40;;
15931;SDS011;8065;49.520;11.284;2023-09-30T12:36:56;5.47;;;2.77;;
15931;SDS011;8065;49.520;11.284;2023-09-30T12:39:24;4.50;;;2.77;;
15931;SDS011;8065;49.520;11.284;2023-09-30T12:41:55;5.77;;;2.80;;
15931;SDS011;8065;49.520;11.284;2023-09-30T12:44:26;5.40;;;2.90;;
15931;SDS011;8065;49.520;11.284;2023-09-30T12:46:54;5.13;;;2.73;;
15931;SDS011;8065;49.520;11.284;2023-09-30T12:49:23;4.60;;;2.73;;
15931;SDS011;8065;49.520;11.284;2023-09-30T12:51:51;3.63;;;2.60;;
15931;SDS011;8065;49.520;11.284;2023-09-30T12:54:19;4.77;;;3.00;;
15931;SDS011;8065;49.520;11.284;2023-09-30T12:56:48;5.67;;;3.17;;
15931;SDS011;8065;49.520;11.284;2023-09-30T12:59:16;4.90;;;2.83;;
15931;SDS011;8065;49.520;11.284;2023-09-30T13:01:51;3.97;;;2.43;;
15931;SDS011;8065;49.520;11.284;2023-09-30T13:04:21;5.43;;;2.80;;
15931;SDS011;8065;49.520;11.284;2023-09-30T13:06:50;5.10;;;2.80;;
15931;SDS011;8065;49.520;11.284;2023-09-30T13:09:19;4.60;;;2.53;;
15931;SDS011;8065;49.520;11.284;2023-09-30T13:11:47;4.53;;;2.97;;
15931;SDS011;8065;49.520;11.284;2023-09-30T13:14:16;3.87;;;2.40;;
15931;SDS011;8065;49.520;11.284;2023-09-30T13:16:45;4.50;;;2.70;;
15931;SDS011;8065;49.520;11.284;2023-09-30T13:19:16;4.33;;;2.90;;
15931;SDS011;8065;49.520;11.284;2023-09-30T13:21:46;4.23;;;2.60;;
15931;SDS011;8065;49.520;11.284;2023-09-30T13:24:14;4.13;;;2.40;;
15931;SDS011;8065;49.520;11.284;2023-09-30T13:26:43;4.53;;;2.93;;
15931;SDS011;8065;49.520;11.284;2023-09-30T13:29:11;3.90;;;2.50;;
15931;SDS011;8065;49.520;11.284;2023-09-30T13:31:41;4.53;;;2.83;;
15931;SDS011;8065;49.520;11.284;2023-09-30T13:34:10;5.23;;;2.63;;
15931;SDS011;8065;49.520;11.284;2023-09-30T13:36:42;4.97;;;3.13;;
15931;SDS011;8065;49.520;11.284;2023-09-30T13:39:10;4.80;;;2.70;;
15931;SDS011;8065;49.520;11.284;2023-09-30T13:41:42;6.17;;;2.80;;
15931;SDS011;8065;49.520;11.284;2023-09-30T13:44:12;4.47;;;3.27;;
15931;SDS011;8065;49.520;11.284;2023-09-30T13:46:41;5.77;;;3.20;;
15931;SDS011;8065;49.520;11.284;2023-09-30T13:49:10;4.60;;;2.90;;
15931;SDS011;8065;49.520;11.284;2023-09-30T13:51:38;5.20;;;3.30;;
15931;SDS011;8065;49.520;11.284;2023-09-30T13:54:09;5.07;;;2.90;;
15931;SDS011;8065;49.520;11.284;2023-09-30T13:56:40;4.87;;;3.37;;
15931;SDS011;8065;49.520;11.284;2023-09-30T13:59:09;5.57;;;3.20;;
15931;SDS011;8065;49.520;11.284;2023-09-30T14:01:37;4.90;;;3.50;;
15931;SDS011;8065;49.520;11.284;2023-09-30T14:04:06;3.50;;;2.90;;
15931;SDS011;8065;49.520;11.284;2023-09-30T14:06:34;5.57;;;3.20;;
15931;SDS011;8065;49.520;11.284;2023-09-30T14:09:03;4.70;;;3.13;;
15931;SDS011;8065;49.520;11.284;2023-09-30T14:11:34;6.63;;;3.40;;
15931;SDS011;8065;49.520;11.284;2023-09-30T14:14:03;5.27;;;3.10;;
15931;SDS011;8065;49.520;11.284;2023-09-30T14:16:34;6.03;;;3.53;;
15931;SDS011;8065;49.520;11.284;2023-09-30T14:19:02;5.70;;;3.23;;
15931;SDS011;8065;49.520;11.284;2023-09-30T14:21:31;5.63;;;3.17;;
15931;SDS011;8065;49.520;11.284;2023-09-30T14:24:00;5.97;;;3.10;;
15931;SDS011;8065;49.520;11.284;2023-09-30T14:26:29;4.70;;;3.30;;
15931;SDS011;8065;49.520;11.284;2023-09-30T14:28:59;4.47;;;3.40;;
15931;SDS011;8065;49.520;11.284;2023-09-30T14:31:28;5.30;;;3.23;;
15931;SDS011;8065;49.520;11.284;2023-09-30T14:33:56;5.33;;;2.87;;
15931;SDS011;8065;49.520;11.284;2023-09-30T14:36:24;6.20;;;3.57;;
15931;SDS011;8065;49.520;11.284;2023-09-30T14:38:54;6.47;;;3.47;;
15931;SDS011;8065;49.520;11.284;2023-09-30T14:41:22;7.07;;;3.63;;
15931;SDS011;8065;49.520;11.284;2023-09-30T14:43:50;5.00;;;3.50;;
15931;SDS011;8065;49.520;11.284;2023-09-30T14:46:21;5.83;;;3.60;;
15931;SDS011;8065;49.520;11.284;2023-09-30T14:48:49;5.70;;;3.77;;
15931;SDS011;8065;49.520;11.284;2023-09-30T14:51:18;5.53;;;3.23;;
15931;SDS011;8065;49.520;11.284;2023-09-30T14:53:46;6.07;;;3.90;;
15931;SDS011;8065;49.520;11.284;2023-09-30T14:56:15;6.07;;;4.07;;
15931;SDS011;8065;49.520;11.284;2023-09-30T14:58:44;5.43;;;3.53;;
15931;SDS011;8065;49.520;11.284;2023-09-30T15:01:13;5.17;;;3.67;;
15931;SDS011;8065;49.520;11.284;2023-09-30T15:03:43;5.07;;;3.70;;
15931;SDS011;8065;49.520;11.284;2023-09-30T15:06:12;6.43;;;3.93;;
15931;SDS011;8065;49.520;11.284;2023-09-30T15:08:40;5.97;;;3.50;;
15931;SDS011;8065;49.520;11.284;2023-09-30T15:11:12;4.07;;;3.27;;
15931;SDS011;8065;49.520;11.284;2023-09-30T15:13:42;6.53;;;4.30;;
15931;SDS011;8065;49.520;11.284;2023-09-30T15:16:15;5.73;;;3.63;;
15931;SDS011;8065;49.520;11.284;2023-09-30T15:18:47;6.77;;;3.97;;
15931;SDS011;8065;49.520;11.284;2023-09-30T15:21:17;5.90;;;3.70;;